DBBB/COO METAR and TAF weather

Enter ICAO airport designator
Station Type Date Time Source
DBBB METAR 2019/07/20 20:00 UTC NOAA

DBBB 202000Z 24008KT 210V270 8000 SCT010 25/24 Q1015 NOSIG


Station Type Date Time Source
DBBB Decoded METAR 2019/07/20 20:00 UTC NOAA

Cotonou, Benin (DBBB) 06-21N 002-23E 9M
Jul 20, 2019 - 04:00 PM EDT / 2019.07.20 2000 UTC
Wind: from the WSW (240 degrees) at 9 MPH (8 KT) (direction variable):0
Visibility: 4 mile(s):0
Sky conditions: partly cloudy
Temperature: 77 F (25 C)
Dew Point: 75 F (24 C)
Relative Humidity: 94%
Pressure (altimeter): 29.97 in. Hg (1015 hPa)
ob: DBBB 202000Z 24008KT 210V270 8000 SCT010 25/24 Q1015 NOSIG
cycle: 20

Station Type Date Time Source
DBBB TAF 2019/07/20 18:21 UTC NOAA

TAF TAF DBBB 201700Z 2018/2124 22010KT 9999 SCT012
TEMPO 2018/2024 TS BKN012 FEW023CB PROB30 2020/2024 4000 RA
TEMPO 2103/2108 BKN010

Example: see airport list